createdAt,value
2022-09-26T00:01:29.428Z,10.10
2022-09-26T00:03:59.220Z,12.30
2022-09-26T00:06:28.269Z,12.07
2022-09-26T00:08:56.706Z,10.57
2022-09-26T00:11:26.934Z,13.43
2022-09-26T00:13:57.057Z,13.10
2022-09-26T00:16:27.136Z,9.52
2022-09-26T00:18:56.949Z,14.50
2022-09-26T00:21:25.420Z,7.60
2022-09-26T00:23:53.402Z,9.32
2022-09-26T00:26:23.813Z,11.35
2022-09-26T00:28:51.815Z,8.43
2022-09-26T00:31:22.045Z,9.25
2022-09-26T00:33:51.329Z,8.88
2022-09-26T00:36:19.060Z,12.52
2022-09-26T00:38:46.760Z,11.13
2022-09-26T00:41:17.058Z,14.73
2022-09-26T00:43:46.474Z,10.38
2022-09-26T00:46:24.306Z,11.25
2022-09-26T00:49:00.108Z,11.15
2022-09-26T00:51:27.988Z,9.18
2022-09-26T00:53:56.822Z,9.30
2022-09-26T00:56:30.491Z,13.85
2022-09-26T00:59:04.433Z,10.75
2022-09-26T01:01:32.466Z,13.25
2022-09-26T01:04:03.405Z,14.85
2022-09-26T01:06:31.325Z,10.95
2022-09-26T01:09:01.676Z,11.27
2022-09-26T01:11:31.879Z,10.88
2022-09-26T01:14:00.256Z,10.57
2022-09-26T01:16:28.461Z,10.70
2022-09-26T01:18:56.318Z,10.07
2022-09-26T01:21:40.365Z,12.30
2022-09-26T01:24:29.313Z,14.82
2022-09-26T01:27:29.989Z,12.98
2022-09-26T01:30:10.459Z,12.23
2022-09-26T01:33:28.109Z,10.43
2022-09-26T01:36:19.944Z,14.00
2022-09-26T01:38:59.173Z,12.23
2022-09-26T01:41:44.032Z,12.15
2022-09-26T01:44:32.217Z,13.73
2022-09-26T01:47:09.384Z,14.10
2022-09-26T01:49:45.242Z,11.82
2022-09-26T01:52:19.419Z,12.95
2022-09-26T01:54:54.184Z,15.13
2022-09-26T01:57:28.100Z,13.63
2022-09-26T02:00:00.070Z,12.25
2022-09-26T02:02:34.098Z,11.27
2022-09-26T02:05:08.486Z,14.55
2022-09-26T02:07:40.773Z,16.63
2022-09-26T02:10:14.782Z,15.20
2022-09-26T02:12:45.996Z,17.52
2022-09-26T02:15:19.032Z,15.23
2022-09-26T02:17:52.723Z,18.27
2022-09-26T02:20:26.826Z,13.55
2022-09-26T02:22:54.582Z,16.30
2022-09-26T02:25:22.303Z,18.05
2022-09-26T02:27:50.483Z,17.30
2022-09-26T02:30:18.284Z,12.90
2022-09-26T02:32:46.096Z,12.52
2022-09-26T02:35:36.527Z,16.70
2022-09-26T02:38:06.694Z,13.35
2022-09-26T02:40:40.374Z,14.00
2022-09-26T02:43:34.331Z,15.82
2022-09-26T02:46:13.349Z,10.88
2022-09-26T02:48:54.469Z,12.10
2022-09-26T02:51:35.635Z,13.05
2022-09-26T02:54:22.108Z,12.15
2022-09-26T02:57:05.769Z,16.30
2022-09-26T02:59:38.759Z,13.27
2022-09-26T03:02:13.331Z,13.40
2022-09-26T03:04:47.436Z,19.50
2022-09-26T03:07:24.529Z,13.82
2022-09-26T03:09:54.029Z,12.13
2022-09-26T03:12:23.824Z,16.92
2022-09-26T03:14:55.475Z,15.52
2022-09-26T03:17:28.913Z,13.80
2022-09-26T03:20:00.299Z,15.52
2022-09-26T03:22:29.359Z,13.02
2022-09-26T03:24:59.457Z,13.55
2022-09-26T03:27:27.668Z,12.88
2022-09-26T03:29:55.420Z,12.38
2022-09-26T03:32:23.137Z,12.80
2022-09-26T03:34:51.626Z,12.45
2022-09-26T03:37:19.366Z,14.88
2022-09-26T03:39:48.453Z,15.05
2022-09-26T03:42:16.667Z,13.30
2022-09-26T03:44:44.684Z,11.43
2022-09-26T03:47:12.396Z,12.60
2022-09-26T03:49:40.080Z,15.88
2022-09-26T03:52:11.524Z,15.27
2022-09-26T03:54:39.264Z,16.73
2022-09-26T03:57:09.800Z,16.52
2022-09-26T03:59:37.468Z,18.92
2022-09-26T04:02:05.671Z,14.43
2022-09-26T04:04:33.483Z,14.93
2022-09-26T04:07:01.208Z,14.40
2022-09-26T04:09:29.176Z,15.63
2022-09-26T04:11:56.874Z,20.17
2022-09-26T04:14:26.391Z,14.23
2022-09-26T04:16:54.101Z,14.25
2022-09-26T04:19:21.777Z,16.10
2022-09-26T04:21:52.015Z,21.70
2022-09-26T04:24:19.739Z,16.73
2022-09-26T04:26:47.667Z,16.90
2022-09-26T04:29:15.520Z,14.90
2022-09-26T04:31:44.903Z,20.55
2022-09-26T04:34:14.737Z,17.00
2022-09-26T04:36:43.597Z,18.08
2022-09-26T04:39:11.604Z,18.75
2022-09-26T04:41:39.660Z,18.45
2022-09-26T04:44:07.395Z,21.88
2022-09-26T04:46:35.170Z,20.88
2022-09-26T04:49:04.378Z,21.95
2022-09-26T04:51:33.037Z,20.90
2022-09-26T04:54:00.867Z,24.20
2022-09-26T04:56:30.406Z,23.67
2022-09-26T04:58:59.644Z,24.80
2022-09-26T05:01:27.937Z,25.08
2022-09-26T05:03:56.977Z,23.80
2022-09-26T05:06:26.430Z,25.73
2022-09-26T05:08:54.728Z,25.90
2022-09-26T05:11:22.503Z,26.30
2022-09-26T05:13:53.598Z,25.02
2022-09-26T05:16:22.459Z,30.17
2022-09-26T05:18:51.551Z,36.38
2022-09-26T05:21:19.220Z,26.70
2022-09-26T05:24:05.699Z,20.15
2022-09-26T05:26:42.725Z,22.15
2022-09-26T05:29:11.982Z,17.50
2022-09-26T05:31:40.661Z,17.65
2022-09-26T05:34:13.157Z,21.30
2022-09-26T05:36:43.373Z,21.67
2022-09-26T05:39:26.370Z,18.95
2022-09-26T05:41:54.695Z,17.58
2022-09-26T05:44:22.372Z,16.02
2022-09-26T05:46:50.369Z,15.73
2022-09-26T05:49:18.149Z,19.92
2022-09-26T05:51:46.472Z,17.65
2022-09-26T05:54:16.484Z,19.40
2022-09-26T05:56:44.216Z,17.85
2022-09-26T05:59:12.306Z,16.17
2022-09-26T06:01:40.136Z,15.43
2022-09-26T06:04:07.921Z,18.75
2022-09-26T06:06:35.672Z,17.52
2022-09-26T06:09:03.764Z,16.77
2022-09-26T06:11:32.792Z,17.75
2022-09-26T06:14:01.196Z,17.98
2022-09-26T06:16:29.835Z,17.95
2022-09-26T06:18:58.551Z,16.27
2022-09-26T06:21:27.346Z,12.40
2022-09-26T06:23:55.034Z,15.18
2022-09-26T06:26:24.873Z,16.23
2022-09-26T06:28:58.166Z,13.90
2022-09-26T06:31:26.500Z,16.67
2022-09-26T06:33:55.141Z,13.65
2022-09-26T06:36:24.312Z,17.27
2022-09-26T06:38:54.204Z,15.50
2022-09-26T06:41:21.876Z,14.25
2022-09-26T06:43:49.827Z,16.27
2022-09-26T06:46:19.009Z,16.98
2022-09-26T06:48:46.981Z,18.40
2022-09-26T06:51:15.145Z,15.52
2022-09-26T06:53:45.756Z,17.42
2022-09-26T06:56:14.593Z,16.52
2022-09-26T06:58:42.896Z,20.33
2022-09-26T07:01:11.117Z,19.02
2022-09-26T07:03:45.068Z,17.02
2022-09-26T07:06:13.895Z,23.45
2022-09-26T07:09:01.446Z,20.30
2022-09-26T07:11:56.200Z,22.95
2022-09-26T07:14:17.655Z,22.20
2022-09-26T07:16:45.741Z,17.80
2022-09-26T07:19:16.103Z,18.98
2022-09-26T07:21:43.791Z,20.60
2022-09-26T07:24:14.004Z,17.38
2022-09-26T07:26:42.039Z,18.40
2022-09-26T07:29:10.256Z,19.85
2022-09-26T07:31:38.010Z,17.02
2022-09-26T07:34:05.928Z,16.48
2022-09-26T07:36:35.118Z,17.35
2022-09-26T07:39:02.829Z,16.95
2022-09-26T07:41:31.371Z,14.68
2022-09-26T07:47:04.550Z,13.57
2022-09-26T07:49:49.873Z,15.27
2022-09-26T07:52:22.077Z,9.90
2022-09-26T07:54:50.019Z,11.95
2022-09-26T07:57:19.272Z,10.57
2022-09-26T07:59:49.583Z,8.70
2022-09-26T08:02:22.483Z,9.27
2022-09-26T08:04:50.418Z,8.45
2022-09-26T08:07:19.463Z,7.07
2022-09-26T08:09:47.180Z,12.95
2022-09-26T08:12:15.553Z,6.53
2022-09-26T08:14:43.301Z,9.10
2022-09-26T08:17:14.327Z,7.35
2022-09-26T08:19:42.272Z,7.20
2022-09-26T08:22:10.176Z,6.13
2022-09-26T08:24:39.792Z,5.38
2022-09-26T08:27:09.371Z,7.05
2022-09-26T08:29:37.064Z,7.25
2022-09-26T08:32:04.859Z,4.78
2022-09-26T08:34:34.960Z,44.22
2022-09-26T08:37:02.666Z,7.25
2022-09-26T08:39:33.390Z,6.40
2022-09-26T08:42:15.324Z,7.28
2022-09-26T08:45:00.718Z,3.67
2022-09-26T08:47:39.352Z,7.50
2022-09-26T08:50:15.854Z,6.32
2022-09-26T08:52:48.552Z,5.32
2022-09-26T08:55:18.744Z,8.68
2022-09-26T08:57:51.308Z,3.83
2022-09-26T09:00:22.440Z,6.57
2022-09-26T09:02:58.431Z,3.08
2022-09-26T09:05:29.357Z,5.10
2022-09-26T09:07:59.331Z,3.95
2022-09-26T09:10:40.597Z,4.85
2022-09-26T09:13:23.034Z,3.97
2022-09-26T09:16:04.857Z,5.55
2022-09-26T09:18:40.608Z,5.72
2022-09-26T09:21:24.330Z,5.53
2022-09-26T09:24:07.366Z,3.67
2022-09-26T09:32:12.133Z,4.13
2022-09-26T09:34:42.489Z,2.95
2022-09-26T09:37:14.827Z,5.93
2022-09-26T09:39:46.917Z,4.63
2022-09-26T09:42:22.718Z,3.00
2022-09-26T09:44:56.291Z,4.05
2022-09-26T09:47:27.167Z,4.47
2022-09-26T09:49:55.143Z,6.97
2022-09-26T09:52:48.569Z,4.32
2022-09-26T09:55:36.512Z,5.75
2022-09-26T09:58:24.075Z,4.30
2022-09-26T10:01:01.481Z,5.28
2022-09-26T10:03:37.264Z,5.93
2022-09-26T10:08:36.903Z,3.47
2022-09-26T10:11:16.828Z,2.78
2022-09-26T10:13:46.069Z,4.45
2022-09-26T10:16:15.660Z,8.45
2022-09-26T10:19:03.388Z,3.67
2022-09-26T10:21:34.247Z,2.97
2022-09-26T10:24:04.632Z,4.35
2022-09-26T10:26:35.844Z,4.80
2022-09-26T10:29:08.090Z,2.10
2022-09-26T10:31:42.809Z,5.10
2022-09-26T10:34:24.438Z,1.93
2022-09-26T10:36:52.764Z,5.18
2022-09-26T10:39:40.100Z,4.53
2022-09-26T10:42:16.226Z,4.55
2022-09-26T10:44:45.954Z,4.53
2022-09-26T10:47:17.796Z,2.60
2022-09-26T10:49:50.984Z,4.20
2022-09-26T10:52:23.504Z,6.00
2022-09-26T10:54:58.948Z,5.47
2022-09-26T10:57:30.871Z,5.55
2022-09-26T11:00:01.345Z,4.88
2022-09-26T11:02:30.423Z,2.70
2022-09-26T11:05:18.872Z,5.38
2022-09-26T11:07:49.447Z,2.53
2022-09-26T11:10:24.029Z,4.07
2022-09-26T11:12:59.747Z,3.60
2022-09-26T11:15:28.669Z,2.42
2022-09-26T11:17:58.537Z,3.85
2022-09-26T11:20:40.528Z,6.28
2022-09-26T11:23:24.210Z,5.03
2022-09-26T11:26:01.170Z,2.95
2022-09-26T11:28:34.227Z,3.45
2022-09-26T11:31:09.756Z,4.28
2022-09-26T11:33:44.044Z,4.75
2022-09-26T11:36:28.700Z,3.00
2022-09-26T11:38:57.817Z,2.55
2022-09-26T11:41:38.069Z,4.25
2022-09-26T11:44:22.164Z,3.13
2022-09-26T11:47:04.458Z,2.58
2022-09-26T11:49:52.126Z,2.88
2022-09-26T11:52:48.393Z,3.38
2022-09-26T11:55:24.747Z,0.80
2022-09-26T11:58:03.553Z,4.10
2022-09-26T12:00:41.790Z,3.88
2022-09-26T12:03:40.915Z,4.32
2022-09-26T12:06:21.879Z,2.63
2022-09-26T12:09:12.036Z,2.83
2022-09-26T12:11:48.437Z,2.05
2022-09-26T12:14:29.076Z,1.95
2022-09-26T12:17:02.736Z,3.60
2022-09-26T12:19:40.104Z,2.38
2022-09-26T12:22:31.737Z,1.77
2022-09-26T12:25:20.356Z,2.30
2022-09-26T12:27:57.542Z,4.50
2022-09-26T12:30:28.122Z,2.28
2022-09-26T12:33:15.852Z,4.60
2022-09-26T12:35:52.406Z,2.20
2022-09-26T12:38:54.361Z,1.00
2022-09-26T12:41:41.389Z,2.13
2022-09-26T12:44:24.404Z,1.33
2022-09-26T12:47:21.999Z,3.92
2022-09-26T12:50:14.404Z,2.80
2022-09-26T12:53:10.019Z,3.33
2022-09-26T12:55:44.823Z,4.22
2022-09-26T12:58:29.004Z,1.30
2022-09-26T13:01:04.792Z,1.33
2022-09-26T13:04:14.647Z,2.92
2022-09-26T13:07:21.105Z,1.88
2022-09-26T13:10:07.837Z,3.70
2022-09-26T13:12:52.099Z,1.40
2022-09-26T13:15:28.837Z,1.15
2022-09-26T13:18:01.774Z,3.25
2022-09-26T13:20:35.257Z,1.92
2022-09-26T13:23:09.704Z,3.40
2022-09-26T13:25:49.354Z,0.88
2022-09-26T13:28:23.989Z,0.65
2022-09-26T13:30:57.896Z,3.13
2022-09-26T13:33:32.400Z,1.38
2022-09-26T13:36:04.350Z,1.65
2022-09-26T13:38:46.035Z,1.58
2022-09-26T13:41:30.786Z,1.27
2022-09-26T13:44:10.312Z,0.77
2022-09-26T13:46:49.810Z,1.67
2022-09-26T13:49:42.799Z,0.55
2022-09-26T13:52:35.081Z,2.20
2022-09-26T13:55:12.080Z,1.70
2022-09-26T13:57:49.684Z,1.27
2022-09-26T14:00:41.457Z,2.17
2022-09-26T14:03:37.177Z,3.00
2022-09-26T14:06:20.184Z,1.95
2022-09-26T14:09:23.703Z,2.03
2022-09-26T14:11:53.228Z,1.45
2022-09-26T14:14:39.081Z,0.85
2022-09-26T14:18:01.255Z,1.98
2022-09-26T14:20:34.334Z,0.50
2022-09-26T14:23:03.081Z,1.70
2022-09-26T14:25:56.593Z,2.50
2022-09-26T14:28:33.711Z,1.77
2022-09-26T14:31:37.639Z,0.50
2022-09-26T14:34:17.107Z,3.50
2022-09-26T14:36:46.444Z,2.35
2022-09-26T14:39:28.267Z,1.17
2022-09-26T14:41:58.766Z,1.38
2022-09-26T14:44:35.046Z,1.35
2022-09-26T14:47:16.081Z,18.52
2022-09-26T14:49:54.708Z,2.47
2022-09-26T14:52:24.593Z,3.35
2022-09-26T14:55:01.100Z,4.05
2022-09-26T14:57:32.455Z,1.02
2022-09-26T15:00:01.881Z,1.05
2022-09-26T15:02:39.439Z,1.83
2022-09-26T15:05:25.725Z,1.73
2022-09-26T15:07:56.848Z,1.10
2022-09-26T15:10:35.413Z,1.95
2022-09-26T15:13:10.709Z,2.20
2022-09-26T15:15:48.196Z,1.95
2022-09-26T15:18:25.058Z,2.95
2022-09-26T15:21:03.300Z,2.92
2022-09-26T15:23:34.370Z,2.00
2022-09-26T15:26:03.541Z,6.78
2022-09-26T15:28:34.667Z,1.15
2022-09-26T15:31:24.231Z,3.10
2022-09-26T15:33:56.335Z,3.35
2022-09-26T15:36:29.470Z,3.70
2022-09-26T15:38:58.819Z,3.35
2022-09-26T15:41:44.451Z,4.90
2022-09-26T15:44:21.387Z,5.13
2022-09-26T15:46:50.482Z,2.40
2022-09-26T15:49:22.858Z,2.35
2022-09-26T15:51:55.289Z,2.38
2022-09-26T15:54:28.588Z,4.35
2022-09-26T15:57:01.459Z,3.47
2022-09-26T15:59:33.356Z,4.78
2022-09-26T16:02:02.763Z,6.68
2022-09-26T16:04:32.319Z,2.45
2022-09-26T16:07:03.465Z,2.08
2022-09-26T16:09:33.372Z,3.47
2022-09-26T16:12:05.002Z,4.93
2022-09-26T16:14:40.219Z,5.78
2022-09-26T16:17:18.770Z,4.43
2022-09-26T16:19:48.941Z,5.03
2022-09-26T16:22:45.819Z,3.17
2022-09-26T16:27:53.867Z,2.75
2022-09-26T16:30:41.451Z,4.30
2022-09-26T16:33:31.872Z,3.10
2022-09-26T16:36:06.077Z,2.88
2022-09-26T16:38:36.987Z,5.10
2022-09-26T16:41:08.849Z,2.92
2022-09-26T16:43:38.961Z,4.53
2022-09-26T16:46:09.706Z,3.90
2022-09-26T16:48:40.541Z,4.65
2022-09-26T16:51:20.656Z,4.97
2022-09-26T16:53:53.225Z,3.90
2022-09-26T16:56:23.684Z,4.03
2022-09-26T16:58:54.567Z,4.25
2022-09-26T17:01:40.139Z,4.90
2022-09-26T17:04:13.386Z,3.80
2022-09-26T17:06:41.288Z,3.83
2022-09-26T17:09:16.483Z,3.35
2022-09-26T17:11:47.174Z,5.17
2022-09-26T17:14:18.427Z,3.88
2022-09-26T17:16:48.364Z,4.20
2022-09-26T17:19:18.255Z,6.38
2022-09-26T17:21:49.128Z,2.95
2022-09-26T17:24:22.204Z,3.65
2022-09-26T17:26:54.327Z,5.82
2022-09-26T17:29:27.296Z,5.53
2022-09-26T17:31:57.226Z,8.00
2022-09-26T17:34:28.217Z,5.35
2022-09-26T17:36:58.596Z,3.22
2022-09-26T17:39:29.102Z,3.75
2022-09-26T17:41:59.040Z,4.15
2022-09-26T17:44:26.975Z,4.32
2022-09-26T17:46:57.157Z,4.13
2022-09-26T17:49:28.480Z,2.17
2022-09-26T17:52:00.483Z,2.63
2022-09-26T17:54:34.520Z,2.67
2022-09-26T17:57:02.446Z,6.22
2022-09-26T17:59:30.368Z,5.95
2022-09-26T18:02:02.270Z,2.15
2022-09-26T18:04:31.359Z,5.45
2022-09-26T18:07:04.264Z,3.35
2022-09-26T18:09:36.242Z,3.00
2022-09-26T18:12:04.970Z,3.88
2022-09-26T18:14:35.349Z,3.72
2022-09-26T18:17:04.237Z,3.45
2022-09-26T18:19:32.308Z,2.92
2022-09-26T18:22:00.239Z,3.28
2022-09-26T18:24:30.184Z,4.15
2022-09-26T18:27:03.790Z,4.45
2022-09-26T18:29:35.811Z,4.20
2022-09-26T18:32:04.891Z,3.08
2022-09-26T18:34:32.799Z,2.90
2022-09-26T18:37:02.052Z,6.20
2022-09-26T18:39:30.474Z,3.25
2022-09-26T18:42:03.508Z,5.57
2022-09-26T18:44:33.178Z,5.50
2022-09-26T18:47:02.098Z,8.80
2022-09-26T18:49:31.835Z,2.00
2022-09-26T18:51:59.974Z,10.77
2022-09-26T18:54:27.911Z,2.63
2022-09-26T18:57:13.633Z,3.97
2022-09-26T18:59:45.137Z,2.93
2022-09-26T19:02:22.399Z,5.47
2022-09-26T19:04:51.241Z,5.90
2022-09-26T19:07:21.421Z,3.95
2022-09-26T19:09:50.729Z,3.05
2022-09-26T19:12:18.764Z,3.85
2022-09-26T19:14:47.996Z,2.08
2022-09-26T19:17:15.923Z,2.30
2022-09-26T19:19:43.784Z,4.63
2022-09-26T19:22:15.085Z,3.72
2022-09-26T19:24:46.304Z,5.22
2022-09-26T19:27:17.658Z,2.95
2022-09-26T19:29:53.297Z,2.45
2022-09-26T19:32:32.356Z,6.72
2022-09-26T19:35:02.831Z,3.15
2022-09-26T19:37:30.796Z,3.28
2022-09-26T19:39:59.072Z,4.65
2022-09-26T19:42:27.145Z,6.80
2022-09-26T19:44:58.275Z,4.05
2022-09-26T19:47:26.786Z,3.75
2022-09-26T19:49:54.576Z,4.43
2022-09-26T19:52:22.944Z,3.38
2022-09-26T19:54:50.766Z,2.70
2022-09-26T19:57:20.719Z,2.15
2022-09-26T19:59:49.293Z,4.38
2022-09-26T20:02:20.608Z,1.45
2022-09-26T20:04:48.848Z,2.47
2022-09-26T20:07:18.187Z,3.40
2022-09-26T20:09:46.643Z,3.00
2022-09-26T20:12:14.846Z,2.10
2022-09-26T20:14:42.872Z,3.30
2022-09-26T20:17:19.156Z,2.50
2022-09-26T20:19:50.213Z,3.30
2022-09-26T20:22:20.709Z,5.20
2022-09-26T20:24:52.296Z,3.30
2022-09-26T20:27:22.563Z,1.10
2022-09-26T20:30:08.738Z,1.88
2022-09-26T20:32:37.277Z,1.17
2022-09-26T20:35:07.173Z,2.75
2022-09-26T20:37:38.582Z,1.35
2022-09-26T20:40:13.343Z,1.60
2022-09-26T20:42:45.039Z,2.50
2022-09-26T20:45:16.940Z,1.08
2022-09-26T20:47:45.474Z,1.40
2022-09-26T20:50:18.463Z,2.25
2022-09-26T20:52:46.265Z,2.65
2022-09-26T20:55:18.229Z,1.45
2022-09-26T20:57:47.823Z,2.55
2022-09-26T21:00:16.695Z,1.95
2022-09-26T21:02:46.205Z,1.38
2022-09-26T21:05:20.106Z,3.05
2022-09-26T21:07:48.171Z,3.50
2022-09-26T21:10:24.260Z,4.53
2022-09-26T21:15:20.588Z,1.17
2022-09-26T21:17:50.177Z,4.18
2022-09-26T21:20:24.249Z,4.50
2022-09-26T21:22:52.419Z,2.22
2022-09-26T21:25:22.284Z,2.08
2022-09-26T21:27:54.337Z,4.82
2022-09-26T21:30:22.224Z,4.07
2022-09-26T21:32:53.136Z,3.30
2022-09-26T21:35:23.968Z,1.67
2022-09-26T21:37:53.616Z,1.38
2022-09-26T21:40:25.050Z,1.83
2022-09-26T21:42:56.231Z,1.15
2022-09-26T21:45:27.617Z,1.70
2022-09-26T21:47:56.068Z,3.10
2022-09-26T21:50:28.194Z,4.47
2022-09-26T21:53:00.974Z,1.48
2022-09-26T21:55:35.570Z,3.00
2022-09-26T21:58:08.108Z,2.35
2022-09-26T22:00:36.023Z,1.67
2022-09-26T22:03:03.829Z,2.30
2022-09-26T22:05:33.021Z,4.82
2022-09-26T22:08:01.734Z,2.28
2022-09-26T22:10:29.993Z,1.58
2022-09-26T22:12:57.867Z,3.70
2022-09-26T22:15:25.837Z,1.83
2022-09-26T22:17:54.263Z,2.70
2022-09-26T22:20:22.416Z,2.35
2022-09-26T22:22:51.651Z,2.03
2022-09-26T22:25:19.475Z,3.13
2022-09-26T22:27:47.282Z,3.30
2022-09-26T22:30:15.092Z,2.47
2022-09-26T22:32:42.931Z,3.55
2022-09-26T22:35:11.033Z,4.95
2022-09-26T22:37:39.101Z,1.30
2022-09-26T22:40:09.596Z,2.92
2022-09-26T22:42:37.399Z,5.20
2022-09-26T22:45:05.814Z,2.55
2022-09-26T22:47:33.638Z,2.97
2022-09-26T22:50:01.527Z,3.08
2022-09-26T22:52:29.373Z,4.32
2022-09-26T22:54:57.264Z,4.15
2022-09-26T22:57:26.469Z,2.45
2022-09-26T22:59:54.278Z,3.70
2022-09-26T23:02:22.112Z,3.08
2022-09-26T23:04:49.953Z,6.82
2022-09-26T23:07:19.953Z,3.38
2022-09-26T23:09:47.911Z,3.70
2022-09-26T23:12:15.727Z,1.77
2022-09-26T23:14:44.918Z,4.40
2022-09-26T23:17:13.051Z,1.63
2022-09-26T23:19:41.295Z,3.35
2022-09-26T23:22:09.091Z,1.00
2022-09-26T23:24:37.389Z,1.60
2022-09-26T23:27:05.203Z,1.80
2022-09-26T23:29:33.062Z,2.58
2022-09-26T23:32:02.536Z,1.88
2022-09-26T23:34:30.389Z,2.00
2022-09-26T23:36:58.205Z,2.45
2022-09-26T23:39:26.004Z,1.60
2022-09-26T23:41:53.767Z,5.28
2022-09-26T23:44:21.573Z,1.95
2022-09-26T23:46:49.338Z,1.90
2022-09-26T23:49:18.602Z,1.63
2022-09-26T23:51:47.463Z,2.80
2022-09-26T23:54:15.249Z,3.35
2022-09-26T23:56:43.037Z,4.00
2022-09-26T23:59:10.838Z,3.15
